createdAt,value
2022-11-01T00:02:07.287Z,31.65
2022-11-01T00:04:34.226Z,33.65
2022-11-01T00:07:01.258Z,26.60
2022-11-01T00:09:28.185Z,35.17
2022-11-01T00:11:55.085Z,37.33
2022-11-01T00:14:22.025Z,36.08
2022-11-01T00:16:49.093Z,27.75
2022-11-01T00:19:16.029Z,33.58
2022-11-01T00:21:42.982Z,31.92
2022-11-01T00:24:09.941Z,37.08
2022-11-01T00:26:37.010Z,27.30
2022-11-01T00:29:04.463Z,29.00
2022-11-01T00:31:31.363Z,22.77
2022-11-01T00:33:58.259Z,30.48
2022-11-01T00:36:25.105Z,39.30
2022-11-01T00:38:52.667Z,26.02
2022-11-01T00:41:21.084Z,31.70
2022-11-01T00:43:48.513Z,24.88
2022-11-01T00:46:16.146Z,21.63
2022-11-01T00:48:43.159Z,29.13
2022-11-01T00:51:10.219Z,29.27
2022-11-01T00:53:37.137Z,28.13
2022-11-01T00:56:06.095Z,26.23
2022-11-01T00:58:33.134Z,25.92
2022-11-01T01:01:00.536Z,19.08
2022-11-01T01:03:27.669Z,29.13
2022-11-01T01:05:55.034Z,24.67
2022-11-01T01:08:22.372Z,23.98
2022-11-01T01:10:49.281Z,23.75
2022-11-01T01:13:16.766Z,18.10
2022-11-01T01:15:43.949Z,17.38
2022-11-01T01:18:11.273Z,24.80
2022-11-01T01:20:38.182Z,20.65
2022-11-01T01:23:05.424Z,27.33
2022-11-01T01:25:32.679Z,18.50
2022-11-01T01:27:59.860Z,17.83
2022-11-01T01:30:26.976Z,21.83
2022-11-01T01:32:53.877Z,17.55
2022-11-01T01:35:20.694Z,12.38
2022-11-01T01:37:47.573Z,13.25
2022-11-01T01:40:14.463Z,24.02
2022-11-01T01:42:42.992Z,15.85
2022-11-01T01:45:39.100Z,22.25
2022-11-01T01:48:23.097Z,25.90
2022-11-01T01:51:02.582Z,29.63
2022-11-01T01:53:48.323Z,25.50
2022-11-01T01:56:32.122Z,26.20
2022-11-01T01:59:09.512Z,27.17
2022-11-01T02:01:40.367Z,30.05
2022-11-01T02:04:21.063Z,31.02
2022-11-01T02:06:48.782Z,35.20
2022-11-01T02:09:16.471Z,30.90
2022-11-01T02:11:43.386Z,29.05
2022-11-01T02:14:10.523Z,33.58
2022-11-01T02:16:52.509Z,23.58
2022-11-01T02:19:31.562Z,27.02
2022-11-01T02:22:13.559Z,23.85
2022-11-01T02:25:03.438Z,32.97
2022-11-01T02:27:51.650Z,24.00
2022-11-01T02:30:24.173Z,32.72
2022-11-01T02:33:33.011Z,33.20
2022-11-01T02:36:23.103Z,16.40
2022-11-01T02:38:59.196Z,20.65
2022-11-01T02:44:14.550Z,20.13
2022-11-01T02:47:01.949Z,19.73
2022-11-01T02:49:30.798Z,20.17
2022-11-01T02:51:59.455Z,19.85
2022-11-01T02:54:32.405Z,22.30
2022-11-01T02:57:06.276Z,21.55
2022-11-01T02:59:45.620Z,24.65
2022-11-01T03:02:41.614Z,24.88
2022-11-01T03:05:23.787Z,20.98
2022-11-01T03:07:57.078Z,17.65
2022-11-01T03:10:32.688Z,22.30
2022-11-01T03:13:08.428Z,22.80
2022-11-01T03:15:40.045Z,18.13
2022-11-01T03:18:13.744Z,26.05
2022-11-01T03:20:47.982Z,29.45
2022-11-01T03:23:18.107Z,21.13
2022-11-01T03:25:54.092Z,21.25
2022-11-01T03:31:11.788Z,21.58
2022-11-01T03:33:43.730Z,24.90
2022-11-01T03:36:14.982Z,15.45
2022-11-01T03:38:49.326Z,26.55
2022-11-01T03:41:19.554Z,23.52
2022-11-01T03:43:47.858Z,22.30
2022-11-01T03:46:16.115Z,22.88
2022-11-01T03:48:43.136Z,16.00
2022-11-01T03:51:10.175Z,25.77
2022-11-01T03:53:37.397Z,24.63
2022-11-01T03:56:04.661Z,16.17
2022-11-01T03:58:46.667Z,20.27
2022-11-01T04:01:15.794Z,16.67
2022-11-01T04:03:43.468Z,12.65
2022-11-01T04:06:11.126Z,17.33
2022-11-01T04:08:38.087Z,11.77
2022-11-01T04:11:05.185Z,16.35
2022-11-01T04:13:32.124Z,15.60
2022-11-01T04:16:17.723Z,18.58
2022-11-01T04:19:13.595Z,7.28
2022-11-01T04:21:41.198Z,15.02
2022-11-01T04:24:09.285Z,11.38
2022-11-01T04:26:36.479Z,10.50
2022-11-01T04:29:03.475Z,13.45
2022-11-01T04:31:36.550Z,15.52
2022-11-01T04:34:05.174Z,23.25
2022-11-01T04:36:32.401Z,12.32
2022-11-01T04:38:59.557Z,13.27
2022-11-01T04:41:28.410Z,19.20
2022-11-01T04:43:57.645Z,14.95
2022-11-01T04:46:24.831Z,13.07
2022-11-01T04:48:51.792Z,19.60
2022-11-01T04:51:18.723Z,24.13
2022-11-01T04:53:45.616Z,18.88
2022-11-01T04:56:13.967Z,15.73
2022-11-01T04:58:44.854Z,24.42
2022-11-01T05:01:13.757Z,23.90
2022-11-01T05:03:40.828Z,16.30
2022-11-01T05:06:07.806Z,13.38
2022-11-01T05:08:34.708Z,29.95
2022-11-01T05:11:01.869Z,19.38
2022-11-01T05:13:28.820Z,12.93
2022-11-01T05:16:17.806Z,14.32
2022-11-01T05:18:43.194Z,15.63
2022-11-01T05:21:10.181Z,9.32
2022-11-01T05:23:37.061Z,18.67
2022-11-01T05:26:04.019Z,22.13
2022-11-01T05:28:30.943Z,21.30
2022-11-01T05:31:01.071Z,11.93
2022-11-01T05:33:27.992Z,23.23
2022-11-01T05:35:54.952Z,20.67
2022-11-01T05:38:21.879Z,21.45
2022-11-01T05:40:48.833Z,16.80
2022-11-01T08:43:03.966Z,2.30
2022-11-01T08:45:31.082Z,2.67
2022-11-01T08:47:59.818Z,2.38
2022-11-01T08:50:26.890Z,2.30
2022-11-01T08:52:53.794Z,2.42
2022-11-01T08:55:21.595Z,1.73
2022-11-01T08:57:48.568Z,1.65
2022-11-01T09:00:16.842Z,2.90
2022-11-01T09:02:43.750Z,1.38
2022-11-01T09:05:10.674Z,1.50
2022-11-01T09:07:38.618Z,2.33
2022-11-01T09:10:06.424Z,2.33
2022-11-01T09:12:33.936Z,3.47
2022-11-01T09:15:01.078Z,1.35
2022-11-01T09:17:28.338Z,1.30
2022-11-01T09:19:55.342Z,3.70
2022-11-01T09:22:22.578Z,1.20
2022-11-01T09:24:49.431Z,2.75
2022-11-01T09:27:16.391Z,2.20
2022-11-01T09:29:45.356Z,1.15
2022-11-01T09:32:15.009Z,0.60
2022-11-01T09:34:41.954Z,1.17
2022-11-01T09:37:08.800Z,0.82
2022-11-01T09:39:35.642Z,1.00
2022-11-01T09:42:06.812Z,1.50
2022-11-01T09:44:42.320Z,0.52
2022-11-01T09:47:25.608Z,1.58
2022-11-01T09:50:11.979Z,1.13
2022-11-01T09:52:41.182Z,0.82
2022-11-01T09:55:26.174Z,0.93
2022-11-01T09:58:17.561Z,1.38
2022-11-01T10:01:13.960Z,0.88
2022-11-01T10:04:00.598Z,0.95
2022-11-01T10:09:25.471Z,1.30
2022-11-01T10:12:01.586Z,1.25
2022-11-01T10:17:16.870Z,1.00
2022-11-01T10:19:49.287Z,1.45
2022-11-01T10:22:36.922Z,0.60
2022-11-01T10:25:19.413Z,1.08
2022-11-01T10:28:31.436Z,0.45
2022-11-01T10:31:03.733Z,2.05
2022-11-01T10:33:47.254Z,0.82
2022-11-01T10:36:18.350Z,0.85
2022-11-01T10:42:02.784Z,1.77
2022-11-01T10:44:31.626Z,0.50
2022-11-01T10:47:00.947Z,0.50
2022-11-01T10:50:00.518Z,0.88
2022-11-01T10:52:32.489Z,1.88
2022-11-01T10:55:01.486Z,0.60
2022-11-01T10:57:38.112Z,0.52
2022-11-01T11:00:14.215Z,0.60
2022-11-01T11:05:19.053Z,0.73
2022-11-01T11:07:46.132Z,0.55
2022-11-01T11:10:27.556Z,1.00
2022-11-01T11:13:02.656Z,0.50
2022-11-01T11:15:56.775Z,1.05
2022-11-01T11:18:29.534Z,0.30
2022-11-01T11:21:00.434Z,0.73
2022-11-01T11:23:34.642Z,0.50
2022-11-01T11:26:08.200Z,0.40
2022-11-01T11:28:38.846Z,0.88
2022-11-01T11:31:25.975Z,0.63
2022-11-01T11:34:01.249Z,0.85
2022-11-01T11:36:29.944Z,0.73
2022-11-01T11:38:57.652Z,0.77
2022-11-01T11:41:31.534Z,0.30
2022-11-01T11:44:00.334Z,2.05
2022-11-01T11:46:27.821Z,0.20
2022-11-01T11:49:07.194Z,0.20
2022-11-01T11:51:40.797Z,0.32
2022-11-01T11:54:24.836Z,0.35
2022-11-01T11:56:54.164Z,0.77
2022-11-01T11:59:30.849Z,0.30
2022-11-01T12:02:04.286Z,0.70
2022-11-01T12:04:40.260Z,0.32
2022-11-01T12:07:08.946Z,0.98
2022-11-01T12:09:38.616Z,1.55
2022-11-01T12:12:17.200Z,1.23
2022-11-01T12:14:44.283Z,0.80
2022-11-01T12:17:26.431Z,0.82
2022-11-01T12:20:00.823Z,0.50
2022-11-01T12:22:34.285Z,0.52
2022-11-01T12:25:08.387Z,1.85
2022-11-01T12:27:36.101Z,0.85
2022-11-01T12:30:19.448Z,1.35
2022-11-01T12:32:57.378Z,0.50
2022-11-01T12:35:32.619Z,0.88
2022-11-01T12:38:24.227Z,1.42
2022-11-01T12:40:52.936Z,0.50
2022-11-01T12:43:35.857Z,0.43
2022-11-01T12:46:16.456Z,0.57
2022-11-01T12:48:57.046Z,0.40
2022-11-01T12:51:29.138Z,2.90
2022-11-01T12:54:06.042Z,0.30
2022-11-01T12:56:33.198Z,0.88
2022-11-01T12:59:00.378Z,0.47
2022-11-01T13:02:04.556Z,0.30
2022-11-01T13:04:35.538Z,0.40
2022-11-01T13:07:23.957Z,0.40
2022-11-01T13:10:27.691Z,1.20
2022-11-01T13:13:11.577Z,0.60
2022-11-01T13:16:05.996Z,1.65
2022-11-01T13:18:59.804Z,1.58
2022-11-01T13:21:42.303Z,0.60
2022-11-01T13:24:12.222Z,1.23
2022-11-01T13:26:50.386Z,0.60
2022-11-01T13:29:25.891Z,0.38
2022-11-01T13:32:01.101Z,1.10
2022-11-01T13:34:46.174Z,1.50
2022-11-01T13:37:39.449Z,0.35
2022-11-01T13:40:09.912Z,0.40
2022-11-01T13:42:48.792Z,0.30
2022-11-01T13:45:29.260Z,2.20
2022-11-01T13:48:05.285Z,1.88
2022-11-01T13:50:54.142Z,1.98
2022-11-01T13:53:23.452Z,0.50
2022-11-01T13:55:57.598Z,1.33
2022-11-01T13:58:25.988Z,2.00
2022-11-01T14:00:55.713Z,0.93
2022-11-01T14:03:25.721Z,3.05
2022-11-01T14:06:07.904Z,1.88
2022-11-01T14:08:47.163Z,1.90
2022-11-01T14:14:30.299Z,1.55
2022-11-01T14:17:15.971Z,3.05
2022-11-01T14:19:43.657Z,3.13
2022-11-01T14:22:22.984Z,1.70
2022-11-01T14:24:58.931Z,0.93
2022-11-01T14:27:28.855Z,1.73
2022-11-01T14:29:56.848Z,2.33
2022-11-01T14:32:27.926Z,1.48
2022-11-01T14:35:30.662Z,2.78
2022-11-01T14:38:05.494Z,1.55
2022-11-01T14:40:35.611Z,0.77
2022-11-01T14:43:25.797Z,1.92
2022-11-01T14:46:02.754Z,4.35
2022-11-01T14:48:40.118Z,2.47
2022-11-01T14:51:26.989Z,1.98
2022-11-01T14:54:23.247Z,4.43
2022-11-01T14:56:52.906Z,6.90
2022-11-01T14:59:28.381Z,2.45
2022-11-01T15:02:06.572Z,4.68
2022-11-01T15:04:40.915Z,5.20
2022-11-01T15:07:27.792Z,4.03
2022-11-01T15:10:01.456Z,3.05
2022-11-01T15:12:33.362Z,1.95
2022-11-01T15:15:01.132Z,1.08
2022-11-01T15:17:33.503Z,2.65
2022-11-01T15:20:08.629Z,2.60
2022-11-01T15:22:35.506Z,3.07
2022-11-01T15:25:05.482Z,1.63
2022-11-01T15:27:44.121Z,3.10
2022-11-01T15:30:21.731Z,2.65
2022-11-01T15:32:53.915Z,2.55
2022-11-01T15:35:26.114Z,4.70
2022-11-01T15:37:54.643Z,1.98
2022-11-01T15:40:31.677Z,4.75
2022-11-01T15:43:04.065Z,3.30
2022-11-01T15:45:36.896Z,0.60
2022-11-01T15:48:12.651Z,1.50
2022-11-01T15:50:46.171Z,2.20
2022-11-01T15:53:19.088Z,1.67
2022-11-01T15:55:54.888Z,2.15
2022-11-01T15:58:44.879Z,2.05
2022-11-01T16:01:16.293Z,2.70
2022-11-01T16:03:55.591Z,2.70
2022-11-01T16:06:29.243Z,0.98
2022-11-01T16:08:59.916Z,1.40
2022-11-01T16:11:30.204Z,1.77
2022-11-01T16:14:07.427Z,0.90
2022-11-01T16:17:04.201Z,1.25
2022-11-01T16:19:48.353Z,3.15
2022-11-01T16:22:30.228Z,1.55
2022-11-01T16:25:24.134Z,1.55
2022-11-01T16:27:58.191Z,3.15
2022-11-01T16:30:46.300Z,2.95
2022-11-01T16:33:31.167Z,2.00
2022-11-01T16:36:03.435Z,2.50
2022-11-01T16:38:33.146Z,3.40
2022-11-01T16:41:03.002Z,1.67
2022-11-01T16:43:32.991Z,2.22
2022-11-01T16:46:01.131Z,4.03
2022-11-01T16:48:33.972Z,2.72
2022-11-01T16:51:02.126Z,1.58
2022-11-01T16:53:30.528Z,2.42
2022-11-01T16:56:30.652Z,1.38
2022-11-01T16:58:59.062Z,3.28
2022-11-01T17:01:34.212Z,2.33
2022-11-01T17:04:02.660Z,4.28
2022-11-01T17:06:32.293Z,3.25
2022-11-01T17:09:01.617Z,2.53
2022-11-01T17:11:28.462Z,2.38
2022-11-01T17:13:55.318Z,2.70
2022-11-01T17:16:25.672Z,7.32
2022-11-01T17:18:55.403Z,3.63
2022-11-01T17:21:22.934Z,2.05
2022-11-01T17:23:54.040Z,3.25
2022-11-01T17:26:23.814Z,4.95
2022-11-01T17:28:52.447Z,4.18
2022-11-01T17:31:19.561Z,3.20
2022-11-01T17:33:46.511Z,3.17
2022-11-01T17:36:15.420Z,5.15
2022-11-01T17:38:43.059Z,3.65
2022-11-01T17:41:14.621Z,4.88
2022-11-01T17:43:41.548Z,7.22
2022-11-01T17:46:24.317Z,4.43
2022-11-01T17:48:51.553Z,9.40
2022-11-01T17:51:27.191Z,4.38
2022-11-01T17:53:56.303Z,3.88
2022-11-01T17:56:26.718Z,8.75
2022-11-01T17:58:54.306Z,8.70
2022-11-01T18:01:29.014Z,5.60
2022-11-01T18:04:02.630Z,4.30
2022-11-01T18:06:33.300Z,6.10
2022-11-01T18:09:01.375Z,7.32
2022-11-01T18:11:44.582Z,7.82
2022-11-01T18:14:41.937Z,5.30
2022-11-01T18:17:35.804Z,7.53
2022-11-01T18:20:26.478Z,12.68
2022-11-01T18:23:08.775Z,5.97
2022-11-01T18:25:47.364Z,9.55
2022-11-01T18:28:30.389Z,9.68
2022-11-01T18:31:00.364Z,9.10
2022-11-01T18:33:55.978Z,8.23
2022-11-01T18:36:53.735Z,6.70
2022-11-01T18:39:39.409Z,6.78
2022-11-01T18:42:09.330Z,14.93
2022-11-01T18:44:37.809Z,6.68
2022-11-01T18:47:27.303Z,10.68
2022-11-01T18:49:56.366Z,8.68
2022-11-01T18:52:24.127Z,9.27
2022-11-01T18:54:56.677Z,8.43
2022-11-01T18:57:24.787Z,9.38
2022-11-01T18:59:53.364Z,9.23
2022-11-01T19:02:28.311Z,6.28
2022-11-01T19:05:15.020Z,5.70
2022-11-01T19:10:28.750Z,8.07
2022-11-01T19:12:56.286Z,7.78
2022-11-01T19:15:29.518Z,9.85
2022-11-01T19:18:03.542Z,7.10
2022-11-01T19:20:32.066Z,6.55
2022-11-01T19:23:04.115Z,10.48
2022-11-01T19:25:33.379Z,9.65
2022-11-01T19:28:05.164Z,8.52
2022-11-01T19:30:33.371Z,5.85
2022-11-01T19:33:24.956Z,9.40
2022-11-01T19:35:54.515Z,18.85
2022-11-01T19:38:22.164Z,7.47
2022-11-01T19:40:52.197Z,10.15
2022-11-01T19:43:25.290Z,5.78
2022-11-01T19:45:54.314Z,10.20
2022-11-01T19:48:25.325Z,13.55
2022-11-01T19:50:52.267Z,6.72
2022-11-01T19:53:27.591Z,9.88
2022-11-01T19:56:10.189Z,13.47
2022-11-01T19:58:57.754Z,7.97
2022-11-01T20:01:40.885Z,6.10
2022-11-01T20:04:29.025Z,3.75
2022-11-01T20:06:57.806Z,9.93
2022-11-01T20:09:28.158Z,6.50
2022-11-01T20:11:55.215Z,10.73
2022-11-01T20:14:22.455Z,8.00
2022-11-01T20:16:49.597Z,13.95
2022-11-01T20:19:18.008Z,6.63
2022-11-01T20:21:45.541Z,6.43
2022-11-01T20:24:12.723Z,14.45
2022-11-01T20:26:39.971Z,16.02
2022-11-01T20:29:06.892Z,13.45
2022-11-01T20:31:33.873Z,17.25
2022-11-01T20:34:00.947Z,12.10
2022-11-01T20:36:28.417Z,14.63
2022-11-01T20:38:55.504Z,10.93
2022-11-01T20:41:22.508Z,8.55
2022-11-01T23:12:42.633Z,9.65
2022-11-01T23:15:28.123Z,12.25
2022-11-01T23:18:01.975Z,9.10
2022-11-01T23:20:30.038Z,9.02
2022-11-01T23:22:57.119Z,9.20
2022-11-01T23:25:25.527Z,12.48
2022-11-01T23:27:53.979Z,12.52
2022-11-01T23:30:20.886Z,8.85
2022-11-01T23:32:47.948Z,8.90
2022-11-01T23:35:19.404Z,6.18
2022-11-01T23:37:46.757Z,3.00
2022-11-01T23:40:19.880Z,7.43
2022-11-01T23:42:48.554Z,7.15
2022-11-01T23:45:28.142Z,6.50
2022-11-01T23:47:55.723Z,7.75
2022-11-01T23:50:37.059Z,9.05
2022-11-01T23:53:06.836Z,8.15
2022-11-01T23:55:38.090Z,6.75
2022-11-01T23:58:12.541Z,9.50
